sensor_id;sensor_type;location;lat;lon;timestamp;P1;durP1;ratioP1;P2;durP2;ratioP2
6292;SDS011;3179;54.350;10.102;2022-11-20T00:01:30;2.40;;;2.20;;
6292;SDS011;3179;54.350;10.102;2022-11-20T00:03:57;2.57;;;2.37;;
6292;SDS011;3179;54.350;10.102;2022-11-20T00:06:25;3.90;;;2.90;;
6292;SDS011;3179;54.350;10.102;2022-11-20T00:08:53;3.00;;;2.70;;
6292;SDS011;3179;54.350;10.102;2022-11-20T00:11:22;2.47;;;2.00;;
6292;SDS011;3179;54.350;10.102;2022-11-20T00:13:51;2.73;;;2.50;;
6292;SDS011;3179;54.350;10.102;2022-11-20T00:16:19;3.60;;;2.90;;
6292;SDS011;3179;54.350;10.102;2022-11-20T00:18:50;2.33;;;2.00;;
6292;SDS011;3179;54.350;10.102;2022-11-20T00:21:17;2.63;;;2.20;;
6292;SDS011;3179;54.350;10.102;2022-11-20T00:23:46;2.80;;;2.40;;
6292;SDS011;3179;54.350;10.102;2022-11-20T00:26:13;3.27;;;2.33;;
6292;SDS011;3179;54.350;10.102;2022-11-20T00:28:42;2.17;;;2.07;;
6292;SDS011;3179;54.350;10.102;2022-11-20T00:31:10;2.07;;;1.87;;
6292;SDS011;3179;54.350;10.102;2022-11-20T00:33:39;2.57;;;1.70;;
6292;SDS011;3179;54.350;10.102;2022-11-20T00:36:08;2.20;;;2.00;;
6292;SDS011;3179;54.350;10.102;2022-11-20T00:38:37;2.47;;;2.27;;
6292;SDS011;3179;54.350;10.102;2022-11-20T00:41:05;3.20;;;2.77;;
6292;SDS011;3179;54.350;10.102;2022-11-20T00:43:33;4.20;;;2.37;;
6292;SDS011;3179;54.350;10.102;2022-11-20T00:46:00;2.10;;;1.97;;
6292;SDS011;3179;54.350;10.102;2022-11-20T00:48:28;2.80;;;2.13;;
6292;SDS011;3179;54.350;10.102;2022-11-20T00:50:55;1.83;;;1.73;;
6292;SDS011;3179;54.350;10.102;2022-11-20T00:53:24;2.60;;;2.37;;
6292;SDS011;3179;54.350;10.102;2022-11-20T00:55:54;2.30;;;2.10;;
6292;SDS011;3179;54.350;10.102;2022-11-20T00:58:22;2.33;;;2.13;;
6292;SDS011;3179;54.350;10.102;2022-11-20T01:00:49;3.10;;;2.57;;
6292;SDS011;3179;54.350;10.102;2022-11-20T01:03:16;6.43;;;2.47;;
6292;SDS011;3179;54.350;10.102;2022-11-20T01:05:43;3.37;;;2.20;;
6292;SDS011;3179;54.350;10.102;2022-11-20T01:08:10;3.23;;;2.33;;
6292;SDS011;3179;54.350;10.102;2022-11-20T01:10:38;2.20;;;2.00;;
6292;SDS011;3179;54.350;10.102;2022-11-20T01:13:05;2.30;;;2.10;;
6292;SDS011;3179;54.350;10.102;2022-11-20T01:15:49;3.87;;;2.43;;
6292;SDS011;3179;54.350;10.102;2022-11-20T01:18:15;2.70;;;2.03;;
6292;SDS011;3179;54.350;10.102;2022-11-20T01:20:42;2.67;;;2.10;;
6292;SDS011;3179;54.350;10.102;2022-11-20T01:23:09;3.97;;;2.33;;
6292;SDS011;3179;54.350;10.102;2022-11-20T01:25:37;2.50;;;2.30;;
6292;SDS011;3179;54.350;10.102;2022-11-20T01:28:04;2.10;;;2.00;;
6292;SDS011;3179;54.350;10.102;2022-11-20T01:30:30;2.87;;;2.10;;
6292;SDS011;3179;54.350;10.102;2022-11-20T01:32:57;3.23;;;2.30;;
6292;SDS011;3179;54.350;10.102;2022-11-20T01:35:24;5.33;;;2.47;;
6292;SDS011;3179;54.350;10.102;2022-11-20T01:37:51;3.67;;;2.00;;
6292;SDS011;3179;54.350;10.102;2022-11-20T01:40:17;3.43;;;2.40;;
6292;SDS011;3179;54.350;10.102;2022-11-20T01:42:46;3.43;;;2.60;;
6292;SDS011;3179;54.350;10.102;2022-11-20T01:45:55;2.20;;;2.10;;
6292;SDS011;3179;54.350;10.102;2022-11-20T01:48:25;2.93;;;2.40;;
6292;SDS011;3179;54.350;10.102;2022-11-20T01:50:56;2.70;;;2.23;;
6292;SDS011;3179;54.350;10.102;2022-11-20T01:53:25;2.97;;;2.20;;
6292;SDS011;3179;54.350;10.102;2022-11-20T01:55:58;1.83;;;1.73;;
6292;SDS011;3179;54.350;10.102;2022-11-20T01:58:31;5.23;;;2.23;;
6292;SDS011;3179;54.350;10.102;2022-11-20T02:01:01;2.13;;;1.93;;
6292;SDS011;3179;54.350;10.102;2022-11-20T02:03:29;2.17;;;1.90;;
6292;SDS011;3179;54.350;10.102;2022-11-20T02:05:58;2.00;;;1.90;;
6292;SDS011;3179;54.350;10.102;2022-11-20T02:08:31;2.00;;;1.90;;
6292;SDS011;3179;54.350;10.102;2022-11-20T02:10:59;2.03;;;1.80;;
6292;SDS011;3179;54.350;10.102;2022-11-20T02:13:25;1.80;;;1.70;;
6292;SDS011;3179;54.350;10.102;2022-11-20T02:16:18;3.00;;;1.90;;
6292;SDS011;3179;54.350;10.102;2022-11-20T02:18:47;2.20;;;2.00;;
6292;SDS011;3179;54.350;10.102;2022-11-20T02:21:26;4.03;;;2.30;;
6292;SDS011;3179;54.350;10.102;2022-11-20T02:24:04;2.00;;;1.80;;
6292;SDS011;3179;54.350;10.102;2022-11-20T02:26:34;2.30;;;2.10;;
6292;SDS011;3179;54.350;10.102;2022-11-20T02:29:08;2.23;;;1.90;;
6292;SDS011;3179;54.350;10.102;2022-11-20T02:31:39;2.10;;;1.90;;
6292;SDS011;3179;54.350;10.102;2022-11-20T02:34:08;2.57;;;2.20;;
6292;SDS011;3179;54.350;10.102;2022-11-20T02:36:35;2.07;;;1.97;;
6292;SDS011;3179;54.350;10.102;2022-11-20T02:39:05;4.23;;;2.33;;
6292;SDS011;3179;54.350;10.102;2022-11-20T02:41:33;2.33;;;2.13;;
6292;SDS011;3179;54.350;10.102;2022-11-20T02:44:01;2.67;;;1.70;;
6292;SDS011;3179;54.350;10.102;2022-11-20T02:46:28;3.73;;;2.10;;
6292;SDS011;3179;54.350;10.102;2022-11-20T02:48:56;1.87;;;1.77;;
6292;SDS011;3179;54.350;10.102;2022-11-20T02:51:23;4.03;;;2.60;;
6292;SDS011;3179;54.350;10.102;2022-11-20T02:53:50;2.53;;;2.00;;
6292;SDS011;3179;54.350;10.102;2022-11-20T02:56:18;2.20;;;2.00;;
6292;SDS011;3179;54.350;10.102;2022-11-20T02:58:45;2.33;;;1.67;;
6292;SDS011;3179;54.350;10.102;2022-11-20T03:01:12;2.80;;;2.00;;
6292;SDS011;3179;54.350;10.102;2022-11-20T03:03:39;1.90;;;1.77;;
6292;SDS011;3179;54.350;10.102;2022-11-20T03:06:06;5.07;;;2.17;;
6292;SDS011;3179;54.350;10.102;2022-11-20T03:08:34;2.20;;;1.87;;
6292;SDS011;3179;54.350;10.102;2022-11-20T03:11:04;2.10;;;1.90;;
6292;SDS011;3179;54.350;10.102;2022-11-20T03:13:34;2.17;;;1.97;;
6292;SDS011;3179;54.350;10.102;2022-11-20T03:16:08;2.47;;;2.07;;
6292;SDS011;3179;54.350;10.102;2022-11-20T03:18:36;3.73;;;2.70;;
6292;SDS011;3179;54.350;10.102;2022-11-20T03:21:03;4.33;;;2.53;;
6292;SDS011;3179;54.350;10.102;2022-11-20T03:23:30;1.70;;;1.60;;
6292;SDS011;3179;54.350;10.102;2022-11-20T03:26:11;2.27;;;2.07;;
6292;SDS011;3179;54.350;10.102;2022-11-20T03:28:41;2.40;;;2.20;;
6292;SDS011;3179;54.350;10.102;2022-11-20T03:31:12;2.23;;;1.83;;
6292;SDS011;3179;54.350;10.102;2022-11-20T03:33:40;3.27;;;2.33;;
6292;SDS011;3179;54.350;10.102;2022-11-20T03:36:08;2.00;;;1.90;;
6292;SDS011;3179;54.350;10.102;2022-11-20T03:38:45;2.60;;;2.10;;
6292;SDS011;3179;54.350;10.102;2022-11-20T03:41:13;3.00;;;1.67;;
6292;SDS011;3179;54.350;10.102;2022-11-20T03:43:46;1.73;;;1.63;;
6292;SDS011;3179;54.350;10.102;2022-11-20T03:46:13;1.70;;;1.40;;
6292;SDS011;3179;54.350;10.102;2022-11-20T03:48:40;0.90;;;0.90;;
6292;SDS011;3179;54.350;10.102;2022-11-20T03:51:07;0.80;;;0.80;;
6292;SDS011;3179;54.350;10.102;2022-11-20T03:53:36;0.77;;;0.77;;
6292;SDS011;3179;54.350;10.102;2022-11-20T03:56:03;1.10;;;0.80;;
6292;SDS011;3179;54.350;10.102;2022-11-20T03:58:30;1.30;;;1.20;;
6292;SDS011;3179;54.350;10.102;2022-11-20T04:01:03;0.83;;;0.80;;
6292;SDS011;3179;54.350;10.102;2022-11-20T04:03:31;0.70;;;0.70;;
6292;SDS011;3179;54.350;10.102;2022-11-20T04:06:00;0.93;;;0.80;;
6292;SDS011;3179;54.350;10.102;2022-11-20T04:08:28;1.07;;;0.50;;
6292;SDS011;3179;54.350;10.102;2022-11-20T04:10:55;0.50;;;0.50;;
6292;SDS011;3179;54.350;10.102;2022-11-20T04:13:21;0.60;;;0.50;;
6292;SDS011;3179;54.350;10.102;2022-11-20T04:15:48;0.60;;;0.60;;
6292;SDS011;3179;54.350;10.102;2022-11-20T04:18:16;0.60;;;0.60;;
6292;SDS011;3179;54.350;10.102;2022-11-20T04:20:43;0.53;;;0.53;;
6292;SDS011;3179;54.350;10.102;2022-11-20T04:23:10;0.70;;;0.70;;
6292;SDS011;3179;54.350;10.102;2022-11-20T04:25:36;0.80;;;0.73;;
6292;SDS011;3179;54.350;10.102;2022-11-20T04:28:03;0.70;;;0.70;;
6292;SDS011;3179;54.350;10.102;2022-11-20T04:30:30;1.27;;;0.60;;
6292;SDS011;3179;54.350;10.102;2022-11-20T04:32:57;0.70;;;0.67;;
6292;SDS011;3179;54.350;10.102;2022-11-20T04:35:25;0.60;;;0.60;;
6292;SDS011;3179;54.350;10.102;2022-11-20T04:37:52;0.90;;;0.90;;
6292;SDS011;3179;54.350;10.102;2022-11-20T04:40:18;0.77;;;0.77;;
6292;SDS011;3179;54.350;10.102;2022-11-20T04:42:45;0.70;;;0.60;;
6292;SDS011;3179;54.350;10.102;2022-11-20T04:45:12;0.50;;;0.50;;
6292;SDS011;3179;54.350;10.102;2022-11-20T04:47:39;0.53;;;0.53;;
6292;SDS011;3179;54.350;10.102;2022-11-20T04:50:06;0.83;;;0.83;;
6292;SDS011;3179;54.350;10.102;2022-11-20T04:52:34;0.97;;;0.97;;
6292;SDS011;3179;54.350;10.102;2022-11-20T04:55:01;0.90;;;0.90;;
6292;SDS011;3179;54.350;10.102;2022-11-20T04:57:28;0.90;;;0.90;;
6292;SDS011;3179;54.350;10.102;2022-11-20T04:59:55;1.00;;;1.00;;
6292;SDS011;3179;54.350;10.102;2022-11-20T05:02:22;1.50;;;1.40;;
6292;SDS011;3179;54.350;10.102;2022-11-20T05:04:49;2.90;;;1.30;;
6292;SDS011;3179;54.350;10.102;2022-11-20T05:07:16;1.33;;;1.07;;
6292;SDS011;3179;54.350;10.102;2022-11-20T05:09:44;0.90;;;0.90;;
6292;SDS011;3179;54.350;10.102;2022-11-20T05:12:11;0.90;;;0.90;;
6292;SDS011;3179;54.350;10.102;2022-11-20T05:14:38;1.50;;;1.40;;
6292;SDS011;3179;54.350;10.102;2022-11-20T05:17:04;1.63;;;1.53;;
6292;SDS011;3179;54.350;10.102;2022-11-20T05:19:31;1.60;;;1.50;;
6292;SDS011;3179;54.350;10.102;2022-11-20T05:21:58;1.93;;;1.73;;
6292;SDS011;3179;54.350;10.102;2022-11-20T05:24:25;2.50;;;1.50;;
6292;SDS011;3179;54.350;10.102;2022-11-20T05:26:53;1.50;;;1.40;;
6292;SDS011;3179;54.350;10.102;2022-11-20T05:29:19;1.80;;;1.50;;
6292;SDS011;3179;54.350;10.102;2022-11-20T05:31:46;1.60;;;1.50;;
6292;SDS011;3179;54.350;10.102;2022-11-20T05:34:13;2.10;;;2.00;;
6292;SDS011;3179;54.350;10.102;2022-11-20T05:36:40;2.60;;;1.80;;
6292;SDS011;3179;54.350;10.102;2022-11-20T05:39:06;1.70;;;1.60;;
6292;SDS011;3179;54.350;10.102;2022-11-20T05:41:33;1.63;;;1.53;;
6292;SDS011;3179;54.350;10.102;2022-11-20T05:44:01;1.50;;;1.40;;
6292;SDS011;3179;54.350;10.102;2022-11-20T05:46:28;1.50;;;1.40;;
6292;SDS011;3179;54.350;10.102;2022-11-20T05:48:55;1.67;;;1.57;;
6292;SDS011;3179;54.350;10.102;2022-11-20T05:51:22;2.03;;;1.93;;
6292;SDS011;3179;54.350;10.102;2022-11-20T05:53:50;1.47;;;1.37;;
6292;SDS011;3179;54.350;10.102;2022-11-20T05:56:17;1.70;;;1.60;;
6292;SDS011;3179;54.350;10.102;2022-11-20T05:58:45;1.90;;;1.80;;
6292;SDS011;3179;54.350;10.102;2022-11-20T06:01:15;2.30;;;2.10;;
6292;SDS011;3179;54.350;10.102;2022-11-20T06:03:43;1.67;;;1.60;;
6292;SDS011;3179;54.350;10.102;2022-11-20T06:06:12;2.00;;;1.90;;
6292;SDS011;3179;54.350;10.102;2022-11-20T06:08:39;2.03;;;1.83;;
6292;SDS011;3179;54.350;10.102;2022-11-20T06:11:07;1.70;;;1.60;;
6292;SDS011;3179;54.350;10.102;2022-11-20T06:13:36;2.10;;;2.00;;
6292;SDS011;3179;54.350;10.102;2022-11-20T06:16:03;2.50;;;2.30;;
6292;SDS011;3179;54.350;10.102;2022-11-20T06:18:31;2.20;;;2.10;;
6292;SDS011;3179;54.350;10.102;2022-11-20T06:20:59;2.33;;;2.13;;
6292;SDS011;3179;54.350;10.102;2022-11-20T06:23:28;2.37;;;2.23;;
6292;SDS011;3179;54.350;10.102;2022-11-20T06:25:55;2.70;;;2.50;;
6292;SDS011;3179;54.350;10.102;2022-11-20T06:28:22;2.70;;;2.50;;
6292;SDS011;3179;54.350;10.102;2022-11-20T06:30:48;3.17;;;2.83;;
6292;SDS011;3179;54.350;10.102;2022-11-20T06:33:15;3.33;;;3.03;;
6292;SDS011;3179;54.350;10.102;2022-11-20T06:35:43;3.70;;;3.23;;
6292;SDS011;3179;54.350;10.102;2022-11-20T06:38:10;4.70;;;3.63;;
6292;SDS011;3179;54.350;10.102;2022-11-20T06:40:39;11.67;;;6.20;;
6292;SDS011;3179;54.350;10.102;2022-11-20T06:43:06;16.37;;;7.60;;
6292;SDS011;3179;54.350;10.102;2022-11-20T06:45:33;12.40;;;6.50;;
6292;SDS011;3179;54.350;10.102;2022-11-20T06:47:59;7.30;;;4.50;;
6292;SDS011;3179;54.350;10.102;2022-11-20T06:50:26;7.90;;;4.33;;
6292;SDS011;3179;54.350;10.102;2022-11-20T06:52:54;5.30;;;3.60;;
6292;SDS011;3179;54.350;10.102;2022-11-20T06:55:21;4.27;;;2.93;;
6292;SDS011;3179;54.350;10.102;2022-11-20T06:57:48;2.80;;;2.60;;
6292;SDS011;3179;54.350;10.102;2022-11-20T07:00:16;2.23;;;2.03;;
6292;SDS011;3179;54.350;10.102;2022-11-20T07:02:43;2.30;;;2.20;;
6292;SDS011;3179;54.350;10.102;2022-11-20T07:05:10;2.03;;;1.73;;
6292;SDS011;3179;54.350;10.102;2022-11-20T07:07:36;1.60;;;1.50;;
6292;SDS011;3179;54.350;10.102;2022-11-20T07:10:05;1.70;;;1.60;;
6292;SDS011;3179;54.350;10.102;2022-11-20T07:12:32;2.00;;;1.20;;
6292;SDS011;3179;54.350;10.102;2022-11-20T07:14:59;2.10;;;1.50;;
6292;SDS011;3179;54.350;10.102;2022-11-20T07:17:26;1.47;;;1.30;;
6292;SDS011;3179;54.350;10.102;2022-11-20T07:19:52;0.80;;;0.80;;
6292;SDS011;3179;54.350;10.102;2022-11-20T07:22:19;0.93;;;0.93;;
6292;SDS011;3179;54.350;10.102;2022-11-20T07:24:46;1.20;;;1.20;;
6292;SDS011;3179;54.350;10.102;2022-11-20T07:27:14;1.17;;;1.07;;
6292;SDS011;3179;54.350;10.102;2022-11-20T07:29:41;1.50;;;1.40;;
6292;SDS011;3179;54.350;10.102;2022-11-20T07:32:08;1.27;;;1.17;;
6292;SDS011;3179;54.350;10.102;2022-11-20T07:34:34;1.30;;;1.10;;
6292;SDS011;3179;54.350;10.102;2022-11-20T07:37:01;0.73;;;0.73;;
6292;SDS011;3179;54.350;10.102;2022-11-20T07:39:28;0.70;;;0.70;;
6292;SDS011;3179;54.350;10.102;2022-11-20T07:41:55;1.07;;;0.90;;
6292;SDS011;3179;54.350;10.102;2022-11-20T07:44:23;0.83;;;0.83;;
6292;SDS011;3179;54.350;10.102;2022-11-20T07:46:49;1.30;;;0.80;;
6292;SDS011;3179;54.350;10.102;2022-11-20T07:49:16;0.70;;;0.70;;
6292;SDS011;3179;54.350;10.102;2022-11-20T07:51:43;1.57;;;0.70;;
6292;SDS011;3179;54.350;10.102;2022-11-20T07:54:10;1.40;;;0.90;;
6292;SDS011;3179;54.350;10.102;2022-11-20T07:56:36;1.20;;;1.00;;
6292;SDS011;3179;54.350;10.102;2022-11-20T07:59:03;1.27;;;1.20;;
6292;SDS011;3179;54.350;10.102;2022-11-20T08:01:31;1.07;;;1.00;;
6292;SDS011;3179;54.350;10.102;2022-11-20T08:03:58;1.17;;;1.10;;
6292;SDS011;3179;54.350;10.102;2022-11-20T08:06:25;3.23;;;1.20;;
6292;SDS011;3179;54.350;10.102;2022-11-20T08:08:51;1.43;;;1.20;;
6292;SDS011;3179;54.350;10.102;2022-11-20T08:11:18;1.70;;;1.13;;
6292;SDS011;3179;54.350;10.102;2022-11-20T08:14:02;1.50;;;1.40;;
6292;SDS011;3179;54.350;10.102;2022-11-20T08:16:39;2.90;;;1.53;;
6292;SDS011;3179;54.350;10.102;2022-11-20T08:19:07;1.23;;;1.13;;
6292;SDS011;3179;54.350;10.102;2022-11-20T08:21:34;1.43;;;1.33;;
6292;SDS011;3179;54.350;10.102;2022-11-20T08:24:01;2.07;;;1.97;;
6292;SDS011;3179;54.350;10.102;2022-11-20T08:26:28;2.20;;;2.00;;
6292;SDS011;3179;54.350;10.102;2022-11-20T08:28:56;2.00;;;1.90;;
6292;SDS011;3179;54.350;10.102;2022-11-20T08:31:24;2.30;;;2.13;;
6292;SDS011;3179;54.350;10.102;2022-11-20T08:33:53;3.80;;;3.50;;
6292;SDS011;3179;54.350;10.102;2022-11-20T08:36:20;2.60;;;2.40;;
6292;SDS011;3179;54.350;10.102;2022-11-20T08:38:48;1.23;;;1.23;;
6292;SDS011;3179;54.350;10.102;2022-11-20T08:41:15;1.57;;;0.80;;
6292;SDS011;3179;54.350;10.102;2022-11-20T08:43:52;1.03;;;0.80;;
6292;SDS011;3179;54.350;10.102;2022-11-20T08:46:20;0.70;;;0.70;;
6292;SDS011;3179;54.350;10.102;2022-11-20T08:48:48;1.10;;;0.80;;
6292;SDS011;3179;54.350;10.102;2022-11-20T08:51:16;1.40;;;0.87;;
6292;SDS011;3179;54.350;10.102;2022-11-20T08:53:44;1.17;;;1.17;;
6292;SDS011;3179;54.350;10.102;2022-11-20T08:56:13;1.30;;;1.00;;
6292;SDS011;3179;54.350;10.102;2022-11-20T08:58:40;1.37;;;1.27;;
6292;SDS011;3179;54.350;10.102;2022-11-20T09:01:07;1.20;;;1.10;;
6292;SDS011;3179;54.350;10.102;2022-11-20T09:03:33;1.30;;;1.20;;
6292;SDS011;3179;54.350;10.102;2022-11-20T09:06:01;2.07;;;1.97;;
6292;SDS011;3179;54.350;10.102;2022-11-20T09:08:30;2.23;;;2.10;;
6292;SDS011;3179;54.350;10.102;2022-11-20T09:10:58;2.37;;;2.17;;
6292;SDS011;3179;54.350;10.102;2022-11-20T09:13:26;2.20;;;2.00;;
6292;SDS011;3179;54.350;10.102;2022-11-20T09:15:54;1.80;;;1.70;;
6292;SDS011;3179;54.350;10.102;2022-11-20T09:18:21;1.80;;;1.60;;
6292;SDS011;3179;54.350;10.102;2022-11-20T09:20:48;2.40;;;1.33;;
6292;SDS011;3179;54.350;10.102;2022-11-20T09:23:15;1.37;;;1.37;;
6292;SDS011;3179;54.350;10.102;2022-11-20T09:25:44;1.83;;;1.73;;
6292;SDS011;3179;54.350;10.102;2022-11-20T09:28:11;2.50;;;1.47;;
6292;SDS011;3179;54.350;10.102;2022-11-20T09:30:38;3.20;;;1.70;;
6292;SDS011;3179;54.350;10.102;2022-11-20T09:33:06;1.70;;;1.60;;
6292;SDS011;3179;54.350;10.102;2022-11-20T09:35:33;1.87;;;1.40;;
6292;SDS011;3179;54.350;10.102;2022-11-20T09:38:04;3.70;;;1.60;;
6292;SDS011;3179;54.350;10.102;2022-11-20T09:40:34;2.13;;;1.60;;
6292;SDS011;3179;54.350;10.102;2022-11-20T09:43:04;1.60;;;1.50;;
6292;SDS011;3179;54.350;10.102;2022-11-20T09:45:44;1.80;;;1.70;;
6292;SDS011;3179;54.350;10.102;2022-11-20T09:48:25;1.33;;;1.27;;
6292;SDS011;3179;54.350;10.102;2022-11-20T09:51:12;2.87;;;1.80;;
6292;SDS011;3179;54.350;10.102;2022-11-20T09:53:50;1.50;;;1.40;;
6292;SDS011;3179;54.350;10.102;2022-11-20T09:56:26;3.63;;;1.77;;
6292;SDS011;3179;54.350;10.102;2022-11-20T09:58:57;7.20;;;2.20;;
6292;SDS011;3179;54.350;10.102;2022-11-20T10:01:29;4.73;;;1.90;;
6292;SDS011;3179;54.350;10.102;2022-11-20T10:04:00;2.17;;;1.97;;
6292;SDS011;3179;54.350;10.102;2022-11-20T10:06:29;1.70;;;1.60;;
6292;SDS011;3179;54.350;10.102;2022-11-20T10:09:03;4.83;;;2.30;;
6292;SDS011;3179;54.350;10.102;2022-11-20T10:11:41;3.73;;;2.50;;
6292;SDS011;3179;54.350;10.102;2022-11-20T10:14:21;3.43;;;3.13;;
6292;SDS011;3179;54.350;10.102;2022-11-20T10:17:00;2.20;;;2.00;;
6292;SDS011;3179;54.350;10.102;2022-11-20T10:19:37;2.50;;;2.00;;
6292;SDS011;3179;54.350;10.102;2022-11-20T10:22:22;1.80;;;1.70;;
6292;SDS011;3179;54.350;10.102;2022-11-20T10:25:00;2.60;;;1.97;;
6292;SDS011;3179;54.350;10.102;2022-11-20T10:27:39;1.97;;;1.87;;
6292;SDS011;3179;54.350;10.102;2022-11-20T10:30:15;3.90;;;1.90;;
6292;SDS011;3179;54.350;10.102;2022-11-20T10:32:45;7.33;;;1.90;;
6292;SDS011;3179;54.350;10.102;2022-11-20T10:35:19;2.07;;;1.97;;
6292;SDS011;3179;54.350;10.102;2022-11-20T10:37:50;2.50;;;1.63;;
6292;SDS011;3179;54.350;10.102;2022-11-20T10:40:23;2.20;;;2.10;;
6292;SDS011;3179;54.350;10.102;2022-11-20T10:42:55;2.40;;;1.93;;
6292;SDS011;3179;54.350;10.102;2022-11-20T10:48:15;2.50;;;2.00;;
6292;SDS011;3179;54.350;10.102;2022-11-20T10:50:49;2.50;;;2.00;;
6292;SDS011;3179;54.350;10.102;2022-11-20T10:53:28;3.80;;;2.00;;
6292;SDS011;3179;54.350;10.102;2022-11-20T10:56:05;1.90;;;1.60;;
6292;SDS011;3179;54.350;10.102;2022-11-20T10:58:38;6.80;;;1.80;;
6292;SDS011;3179;54.350;10.102;2022-11-20T11:01:14;1.60;;;1.50;;
6292;SDS011;3179;54.350;10.102;2022-11-20T11:03:42;2.77;;;2.07;;
6292;SDS011;3179;54.350;10.102;2022-11-20T11:06:10;2.50;;;2.30;;
6292;SDS011;3179;54.350;10.102;2022-11-20T11:08:43;4.90;;;2.80;;
6292;SDS011;3179;54.350;10.102;2022-11-20T11:11:18;4.90;;;2.13;;
6292;SDS011;3179;54.350;10.102;2022-11-20T11:13:48;2.20;;;1.87;;
6292;SDS011;3179;54.350;10.102;2022-11-20T11:16:21;2.23;;;2.03;;
6292;SDS011;3179;54.350;10.102;2022-11-20T11:18:49;2.33;;;2.10;;
6292;SDS011;3179;54.350;10.102;2022-11-20T11:21:21;2.47;;;2.10;;
6292;SDS011;3179;54.350;10.102;2022-11-20T11:23:57;2.13;;;2.03;;
6292;SDS011;3179;54.350;10.102;2022-11-20T11:26:25;5.97;;;1.80;;
6292;SDS011;3179;54.350;10.102;2022-11-20T11:28:53;3.53;;;2.00;;
6292;SDS011;3179;54.350;10.102;2022-11-20T11:31:26;2.70;;;1.90;;
6292;SDS011;3179;54.350;10.102;2022-11-20T11:34:03;2.23;;;1.73;;
6292;SDS011;3179;54.350;10.102;2022-11-20T11:36:31;2.83;;;2.63;;
6292;SDS011;3179;54.350;10.102;2022-11-20T11:38:59;2.30;;;2.17;;
6292;SDS011;3179;54.350;10.102;2022-11-20T11:41:29;2.50;;;2.30;;
6292;SDS011;3179;54.350;10.102;2022-11-20T11:44:00;2.10;;;1.87;;
6292;SDS011;3179;54.350;10.102;2022-11-20T11:46:58;2.80;;;1.80;;
6292;SDS011;3179;54.350;10.102;2022-11-20T11:49:25;2.00;;;1.90;;
6292;SDS011;3179;54.350;10.102;2022-11-20T11:51:56;1.67;;;1.57;;
6292;SDS011;3179;54.350;10.102;2022-11-20T11:54:30;3.23;;;1.80;;
6292;SDS011;3179;54.350;10.102;2022-11-20T11:57:05;2.27;;;1.90;;
6292;SDS011;3179;54.350;10.102;2022-11-20T11:59:41;2.00;;;1.67;;
6292;SDS011;3179;54.350;10.102;2022-11-20T12:02:32;3.63;;;1.63;;
6292;SDS011;3179;54.350;10.102;2022-11-20T12:05:05;1.47;;;1.37;;
6292;SDS011;3179;54.350;10.102;2022-11-20T12:07:41;2.03;;;1.80;;
6292;SDS011;3179;54.350;10.102;2022-11-20T12:10:14;2.20;;;2.00;;
6292;SDS011;3179;54.350;10.102;2022-11-20T12:12:46;2.00;;;1.90;;
6292;SDS011;3179;54.350;10.102;2022-11-20T12:15:22;3.57;;;2.73;;
6292;SDS011;3179;54.350;10.102;2022-11-20T12:17:55;14.57;;;11.67;;
6292;SDS011;3179;54.350;10.102;2022-11-20T12:20:23;7.83;;;6.00;;
6292;SDS011;3179;54.350;10.102;2022-11-20T12:22:54;3.60;;;2.73;;
6292;SDS011;3179;54.350;10.102;2022-11-20T12:25:28;2.10;;;2.00;;
6292;SDS011;3179;54.350;10.102;2022-11-20T12:28:14;2.90;;;1.87;;
6292;SDS011;3179;54.350;10.102;2022-11-20T12:30:59;2.43;;;1.60;;
6292;SDS011;3179;54.350;10.102;2022-11-20T12:33:42;3.27;;;1.70;;
6292;SDS011;3179;54.350;10.102;2022-11-20T12:36:38;3.77;;;3.50;;
6292;SDS011;3179;54.350;10.102;2022-11-20T12:39:20;2.70;;;2.43;;
6292;SDS011;3179;54.350;10.102;2022-11-20T12:42:08;3.00;;;2.37;;
6292;SDS011;3179;54.350;10.102;2022-11-20T12:45:14;5.30;;;2.50;;
6292;SDS011;3179;54.350;10.102;2022-11-20T12:48:06;3.07;;;2.67;;
6292;SDS011;3179;54.350;10.102;2022-11-20T12:50:48;3.53;;;3.03;;
6292;SDS011;3179;54.350;10.102;2022-11-20T12:53:27;6.57;;;3.70;;
6292;SDS011;3179;54.350;10.102;2022-11-20T12:56:01;3.43;;;3.10;;
6292;SDS011;3179;54.350;10.102;2022-11-20T12:58:37;2.97;;;2.03;;
6292;SDS011;3179;54.350;10.102;2022-11-20T13:01:16;6.70;;;5.70;;
6292;SDS011;3179;54.350;10.102;2022-11-20T13:04:07;4.93;;;3.17;;
6292;SDS011;3179;54.350;10.102;2022-11-20T13:06:42;2.60;;;2.03;;
6292;SDS011;3179;54.350;10.102;2022-11-20T13:09:11;1.70;;;1.60;;
6292;SDS011;3179;54.350;10.102;2022-11-20T13:11:41;1.90;;;1.80;;
6292;SDS011;3179;54.350;10.102;2022-11-20T13:14:16;1.50;;;1.40;;
6292;SDS011;3179;54.350;10.102;2022-11-20T13:16:53;1.87;;;1.77;;
6292;SDS011;3179;54.350;10.102;2022-11-20T13:19:24;2.03;;;1.90;;
6292;SDS011;3179;54.350;10.102;2022-11-20T13:21:53;2.00;;;1.90;;
6292;SDS011;3179;54.350;10.102;2022-11-20T13:24:21;2.13;;;1.97;;
6292;SDS011;3179;54.350;10.102;2022-11-20T13:26:59;2.20;;;1.50;;
6292;SDS011;3179;54.350;10.102;2022-11-20T13:29:27;4.30;;;1.40;;
6292;SDS011;3179;54.350;10.102;2022-11-20T13:32:02;1.77;;;1.67;;
6292;SDS011;3179;54.350;10.102;2022-11-20T13:34:34;1.33;;;1.23;;
6292;SDS011;3179;54.350;10.102;2022-11-20T13:37:03;2.13;;;1.93;;
6292;SDS011;3179;54.350;10.102;2022-11-20T13:39:30;16.47;;;7.40;;
6292;SDS011;3179;54.350;10.102;2022-11-20T13:41:59;10.93;;;6.20;;
6292;SDS011;3179;54.350;10.102;2022-11-20T13:44:29;7.50;;;3.63;;
6292;SDS011;3179;54.350;10.102;2022-11-20T13:47:00;4.93;;;2.00;;
6292;SDS011;3179;54.350;10.102;2022-11-20T13:49:29;2.07;;;1.87;;
6292;SDS011;3179;54.350;10.102;2022-11-20T13:52:01;2.07;;;1.50;;
6292;SDS011;3179;54.350;10.102;2022-11-20T13:55:01;1.77;;;1.53;;
6292;SDS011;3179;54.350;10.102;2022-11-20T13:57:47;2.40;;;1.50;;
6292;SDS011;3179;54.350;10.102;2022-11-20T14:00:25;1.73;;;1.43;;
6292;SDS011;3179;54.350;10.102;2022-11-20T14:02:58;1.47;;;1.37;;
6292;SDS011;3179;54.350;10.102;2022-11-20T14:05:34;1.77;;;1.67;;
6292;SDS011;3179;54.350;10.102;2022-11-20T14:08:04;1.80;;;1.70;;
6292;SDS011;3179;54.350;10.102;2022-11-20T14:10:32;2.30;;;1.37;;
6292;SDS011;3179;54.350;10.102;2022-11-20T14:13:09;2.50;;;1.57;;
6292;SDS011;3179;54.350;10.102;2022-11-20T14:15:37;2.10;;;1.90;;
6292;SDS011;3179;54.350;10.102;2022-11-20T14:18:11;4.20;;;2.40;;
6292;SDS011;3179;54.350;10.102;2022-11-20T14:20:39;3.00;;;2.30;;
6292;SDS011;3179;54.350;10.102;2022-11-20T14:23:10;2.60;;;2.30;;
6292;SDS011;3179;54.350;10.102;2022-11-20T14:25:37;4.73;;;2.73;;
6292;SDS011;3179;54.350;10.102;2022-11-20T14:28:10;2.00;;;1.90;;
6292;SDS011;3179;54.350;10.102;2022-11-20T14:30:44;2.80;;;2.60;;
6292;SDS011;3179;54.350;10.102;2022-11-20T14:33:13;2.03;;;1.93;;
6292;SDS011;3179;54.350;10.102;2022-11-20T14:35:43;2.20;;;2.00;;
6292;SDS011;3179;54.350;10.102;2022-11-20T14:38:13;1.87;;;1.77;;
6292;SDS011;3179;54.350;10.102;2022-11-20T14:40:43;2.73;;;2.10;;
6292;SDS011;3179;54.350;10.102;2022-11-20T14:43:17;2.00;;;1.70;;
6292;SDS011;3179;54.350;10.102;2022-11-20T14:45:46;1.80;;;1.70;;
6292;SDS011;3179;54.350;10.102;2022-11-20T14:48:18;2.63;;;1.40;;
6292;SDS011;3179;54.350;10.102;2022-11-20T14:50:48;1.50;;;1.40;;
6292;SDS011;3179;54.350;10.102;2022-11-20T14:53:21;1.47;;;1.47;;
6292;SDS011;3179;54.350;10.102;2022-11-20T14:55:53;1.97;;;1.77;;
6292;SDS011;3179;54.350;10.102;2022-11-20T14:58:22;4.27;;;1.40;;
6292;SDS011;3179;54.350;10.102;2022-11-20T15:00:53;2.67;;;1.40;;
6292;SDS011;3179;54.350;10.102;2022-11-20T15:03:21;1.57;;;1.43;;
6292;SDS011;3179;54.350;10.102;2022-11-20T15:05:49;1.20;;;1.17;;
6292;SDS011;3179;54.350;10.102;2022-11-20T15:08:17;1.67;;;1.50;;
6292;SDS011;3179;54.350;10.102;2022-11-20T15:10:45;2.30;;;1.60;;
6292;SDS011;3179;54.350;10.102;2022-11-20T15:13:14;3.50;;;1.50;;
6292;SDS011;3179;54.350;10.102;2022-11-20T15:15:45;2.10;;;1.90;;
6292;SDS011;3179;54.350;10.102;2022-11-20T15:18:14;2.37;;;1.90;;
6292;SDS011;3179;54.350;10.102;2022-11-20T15:20:43;1.83;;;1.67;;
6292;SDS011;3179;54.350;10.102;2022-11-20T15:23:11;3.37;;;2.33;;